BWE weather

Braunschweig-Wolfsburg Airport
Braunschweig, Lower Saxony, Germany

Public forecast

Using degrees Celsius for public forecast. Weather courtesy of forecast.io.

Current aviation weather report (METAR) for Braunschweig-Wolfsburg Airport

Report is more than 6 hours old.

Retrieved 2020/02/22 16:50 UTC (12 hours ago):

EDVE 221650Z 25025G41KT 9999 OVC033 11/04 Q1013

Closest aviation forecast (TAF) to Braunschweig-Wolfsburg Airport

Forecast is more than 12 hours old.

Closest forecast is Celle Airport, 25.5 nm (47.2 km) NW. Retrieved 2010/03/08 05:23 UTC (10 years ago):

TAF ETHC 080523Z 0806/0818 VRB02KT 7000 NSW BKN007 TEMPO 0806/0808 23003KT 4000 -SN BKN005 OVC010 BECMG 0808/0811 08005KT 9999 NSW SCT010 BKN020